sensor_id;sensor_type;location;lat;lon;timestamp;pressure;altitude;pressure_sealevel;temperature;humidity
63654;BME280;49809;47.418;19.080;2023-08-01T00:02:44;99927.50;;;16.48;84.84
63654;BME280;49809;47.418;19.080;2023-08-01T00:06:23;99934.53;;;16.44;84.86
63654;BME280;49809;47.418;19.080;2023-08-01T00:09:59;99932.94;;;16.43;84.96
63654;BME280;49809;47.418;19.080;2023-08-01T00:13:40;99929.38;;;16.34;84.97
63654;BME280;49809;47.418;19.080;2023-08-01T00:18:08;99938.31;;;16.29;84.97
63654;BME280;49809;47.418;19.080;2023-08-01T00:22:16;99928.78;;;16.23;85.14
63654;BME280;49809;47.418;19.080;2023-08-01T00:25:58;99921.69;;;16.19;85.74
63654;BME280;49809;47.418;19.080;2023-08-01T00:29:38;99927.03;;;16.19;85.91
63654;BME280;49809;47.418;19.080;2023-08-01T00:33:24;99935.13;;;16.14;86.47
63654;BME280;49809;47.418;19.080;2023-08-01T00:37:00;99933.34;;;16.09;86.93
63654;BME280;49809;47.418;19.080;2023-08-01T00:44:06;99935.31;;;16.03;87.52
63654;BME280;49809;47.418;19.080;2023-08-01T00:48:09;99935.13;;;16.00;87.92
63654;BME280;49809;47.418;19.080;2023-08-01T00:51:48;99923.94;;;15.98;89.00
63654;BME280;49809;47.418;19.080;2023-08-01T00:55:26;99919.47;;;15.93;89.47
63654;BME280;49809;47.418;19.080;2023-08-01T01:02:56;99904.84;;;15.77;89.48
63654;BME280;49809;47.418;19.080;2023-08-01T01:06:47;99899.09;;;15.70;89.30
63654;BME280;49809;47.418;19.080;2023-08-01T01:10:18;99892.19;;;15.69;89.87
63654;BME280;49809;47.418;19.080;2023-08-01T01:18:22;99882.09;;;15.66;90.72
63654;BME280;49809;47.418;19.080;2023-08-01T01:22:13;99880.03;;;15.63;91.33
63654;BME280;49809;47.418;19.080;2023-08-01T01:26:10;99883.19;;;15.65;91.61
63654;BME280;49809;47.418;19.080;2023-08-01T01:33:45;99878.53;;;15.57;91.70
63654;BME280;49809;47.418;19.080;2023-08-01T01:41:38;99872.56;;;15.46;91.96
63654;BME280;49809;47.418;19.080;2023-08-01T01:45:39;99866.41;;;15.46;92.10
63654;BME280;49809;47.418;19.080;2023-08-01T01:49:22;99869.38;;;15.44;92.70
63654;BME280;49809;47.418;19.080;2023-08-01T01:53:17;99867.59;;;15.40;92.52
63654;BME280;49809;47.418;19.080;2023-08-01T02:05:35;99865.13;;;15.30;92.27
63654;BME280;49809;47.418;19.080;2023-08-01T02:09:12;99850.75;;;15.26;92.26
63654;BME280;49809;47.418;19.080;2023-08-01T02:13:06;99851.88;;;15.25;92.88
63654;BME280;49809;47.418;19.080;2023-08-01T02:16:29;99853.22;;;15.22;92.79
63654;BME280;49809;47.418;19.080;2023-08-01T02:20:08;99856.50;;;15.19;92.44
63654;BME280;49809;47.418;19.080;2023-08-01T02:27:38;99843.00;;;15.10;92.56
63654;BME280;49809;47.418;19.080;2023-08-01T02:31:34;99840.87;;;15.12;92.85
63654;BME280;49809;47.418;19.080;2023-08-01T02:35:57;99843.31;;;15.09;92.67
63654;BME280;49809;47.418;19.080;2023-08-01T02:39:35;99850.38;;;15.18;92.13
63654;BME280;49809;47.418;19.080;2023-08-01T02:44:04;99844.69;;;15.06;92.65
63654;BME280;49809;47.418;19.080;2023-08-01T02:47:21;99845.94;;;14.95;93.30
63654;BME280;49809;47.418;19.080;2023-08-01T02:50:39;99833.69;;;14.94;93.62
63654;BME280;49809;47.418;19.080;2023-08-01T02:54:24;99832.72;;;14.90;93.99
63654;BME280;49809;47.418;19.080;2023-08-01T02:58:00;99833.50;;;14.91;94.46
63654;BME280;49809;47.418;19.080;2023-08-01T03:01:45;99835.78;;;14.97;95.00
63654;BME280;49809;47.418;19.080;2023-08-01T03:05:14;99831.31;;;14.93;94.64
63654;BME280;49809;47.418;19.080;2023-08-01T03:08:54;99836.53;;;14.84;94.51
63654;BME280;49809;47.418;19.080;2023-08-01T03:12:36;99831.00;;;14.81;94.55
63654;BME280;49809;47.418;19.080;2023-08-01T03:16:25;99833.13;;;14.78;94.97
63654;BME280;49809;47.418;19.080;2023-08-01T03:24:07;99831.28;;;14.79;95.08
63654;BME280;49809;47.418;19.080;2023-08-01T03:28:07;99832.94;;;14.75;95.20
63654;BME280;49809;47.418;19.080;2023-08-01T03:32:04;99831.34;;;14.74;95.40
63654;BME280;49809;47.418;19.080;2023-08-01T03:35:33;99819.81;;;14.78;95.04
63654;BME280;49809;47.418;19.080;2023-08-01T03:39:25;99825.00;;;14.89;94.51
63654;BME280;49809;47.418;19.080;2023-08-01T03:42:53;99821.13;;;14.81;95.05
63654;BME280;49809;47.418;19.080;2023-08-01T03:46:27;99821.41;;;14.79;95.10
63654;BME280;49809;47.418;19.080;2023-08-01T03:50:11;99827.53;;;14.80;95.28
63654;BME280;49809;47.418;19.080;2023-08-01T03:53:52;99826.06;;;14.88;94.74
63654;BME280;49809;47.418;19.080;2023-08-01T03:58:01;99818.87;;;14.88;94.10
63654;BME280;49809;47.418;19.080;2023-08-01T04:01:53;99814.75;;;14.96;94.49
63654;BME280;49809;47.418;19.080;2023-08-01T04:06:01;99818.13;;;15.01;93.70
63654;BME280;49809;47.418;19.080;2023-08-01T04:09:52;99818.53;;;15.08;93.04
63654;BME280;49809;47.418;19.080;2023-08-01T04:13:27;99822.62;;;15.19;91.94
63654;BME280;49809;47.418;19.080;2023-08-01T04:17:15;99810.47;;;15.27;91.97
63654;BME280;49809;47.418;19.080;2023-08-01T04:20:49;99812.78;;;15.34;91.50
63654;BME280;49809;47.418;19.080;2023-08-01T04:28:42;99810.84;;;15.53;90.90
63654;BME280;49809;47.418;19.080;2023-08-01T04:32:33;99810.16;;;15.61;90.26
63654;BME280;49809;47.418;19.080;2023-08-01T04:36:30;99809.97;;;15.71;90.24
63654;BME280;49809;47.418;19.080;2023-08-01T04:40:09;99806.81;;;15.83;90.19
63654;BME280;49809;47.418;19.080;2023-08-01T04:43:47;99812.25;;;15.91;90.31
63654;BME280;49809;47.418;19.080;2023-08-01T04:47:38;99801.25;;;16.06;89.84
63654;BME280;49809;47.418;19.080;2023-08-01T04:51:06;99798.22;;;16.22;88.87
63654;BME280;49809;47.418;19.080;2023-08-01T04:54:46;99801.78;;;16.31;89.09
63654;BME280;49809;47.418;19.080;2023-08-01T04:58:31;99794.81;;;16.43;88.23
63654;BME280;49809;47.418;19.080;2023-08-01T05:18:12;99778.97;;;17.14;86.74
63654;BME280;49809;47.418;19.080;2023-08-01T05:21:50;99782.38;;;17.28;86.44
63654;BME280;49809;47.418;19.080;2023-08-01T05:29:37;99777.25;;;17.49;85.20
63654;BME280;49809;47.418;19.080;2023-08-01T05:33:04;99781.13;;;17.65;84.22
63654;BME280;49809;47.418;19.080;2023-08-01T05:36:39;99781.44;;;17.63;83.31
63654;BME280;49809;47.418;19.080;2023-08-01T05:40:09;99781.66;;;17.84;83.20
63654;BME280;49809;47.418;19.080;2023-08-01T05:43:55;99782.00;;;18.00;82.37
63654;BME280;49809;47.418;19.080;2023-08-01T05:58:46;99781.75;;;18.61;81.89
63654;BME280;49809;47.418;19.080;2023-08-01T06:06:35;99780.25;;;18.98;80.14
63654;BME280;49809;47.418;19.080;2023-08-01T06:10:50;99772.94;;;19.25;80.51
63654;BME280;49809;47.418;19.080;2023-08-01T06:23:05;99774.06;;;19.91;78.07
63654;BME280;49809;47.418;19.080;2023-08-01T06:26:38;99774.03;;;20.20;78.25
63654;BME280;49809;47.418;19.080;2023-08-01T06:34:14;99774.59;;;20.67;75.26
63654;BME280;49809;47.418;19.080;2023-08-01T06:41:23;99773.78;;;21.20;73.74
63654;BME280;49809;47.418;19.080;2023-08-01T06:49:10;99763.94;;;21.37;72.56
63654;BME280;49809;47.418;19.080;2023-08-01T06:52:30;99763.72;;;21.78;73.09
63654;BME280;49809;47.418;19.080;2023-08-01T06:56:13;99753.81;;;22.06;70.72
63654;BME280;49809;47.418;19.080;2023-08-01T07:03:44;99749.06;;;22.83;68.17
63654;BME280;49809;47.418;19.080;2023-08-01T07:07:20;99748.13;;;23.07;67.70
63654;BME280;49809;47.418;19.080;2023-08-01T07:11:39;99752.75;;;23.38;65.40
63654;BME280;49809;47.418;19.080;2023-08-01T07:15:35;99751.31;;;23.75;65.42
63654;BME280;49809;47.418;19.080;2023-08-01T07:19:16;99746.53;;;24.04;63.46
63654;BME280;49809;47.418;19.080;2023-08-01T07:23:05;99733.41;;;24.21;62.41
63654;BME280;49809;47.418;19.080;2023-08-01T07:26:49;99729.78;;;24.52;61.52
63654;BME280;49809;47.418;19.080;2023-08-01T07:30:23;99728.31;;;24.78;60.43
63654;BME280;49809;47.418;19.080;2023-08-01T07:33:48;99724.44;;;24.98;59.33
63654;BME280;49809;47.418;19.080;2023-08-01T07:42:00;99729.47;;;26.27;55.71
63654;BME280;49809;47.418;19.080;2023-08-01T07:46:33;99725.81;;;26.46;54.82
63654;BME280;49809;47.418;19.080;2023-08-01T07:50:31;99729.78;;;26.93;53.55
63654;BME280;49809;47.418;19.080;2023-08-01T07:54:05;99719.59;;;27.27;51.41
63654;BME280;49809;47.418;19.080;2023-08-01T07:57:49;99709.78;;;27.59;50.01
63654;BME280;49809;47.418;19.080;2023-08-01T08:01:06;99716.78;;;28.57;47.47
63654;BME280;49809;47.418;19.080;2023-08-01T08:05:02;99703.97;;;28.58;46.97
63654;BME280;49809;47.418;19.080;2023-08-01T08:08:46;99707.53;;;28.72;46.06
63654;BME280;49809;47.418;19.080;2023-08-01T08:12:43;99708.69;;;28.85;45.32
63654;BME280;49809;47.418;19.080;2023-08-01T08:16:20;99702.38;;;29.98;43.76
63654;BME280;49809;47.418;19.080;2023-08-01T08:19:54;99693.97;;;30.44;42.39
63654;BME280;49809;47.418;19.080;2023-08-01T08:27:34;99692.97;;;30.03;43.00
63654;BME280;49809;47.418;19.080;2023-08-01T08:31:08;99700.53;;;29.28;42.89
63654;BME280;49809;47.418;19.080;2023-08-01T08:34:43;99690.81;;;29.13;43.20
63654;BME280;49809;47.418;19.080;2023-08-01T08:38:26;99688.87;;;30.43;41.76
63654;BME280;49809;47.418;19.080;2023-08-01T08:42:03;99690.69;;;30.71;40.53
63654;BME280;49809;47.418;19.080;2023-08-01T08:45:35;99680.91;;;30.70;40.13
63654;BME280;49809;47.418;19.080;2023-08-01T08:49:11;99686.59;;;31.41;38.32
63654;BME280;49809;47.418;19.080;2023-08-01T08:53:08;99682.69;;;32.40;36.88
63654;BME280;49809;47.418;19.080;2023-08-01T08:57:14;99684.38;;;31.29;37.78
63654;BME280;49809;47.418;19.080;2023-08-01T09:13:50;99657.56;;;33.42;34.16
63654;BME280;49809;47.418;19.080;2023-08-01T09:17:53;99651.09;;;34.63;32.64
63654;BME280;49809;47.418;19.080;2023-08-01T09:21:47;99643.56;;;33.95;32.78
63654;BME280;49809;47.418;19.080;2023-08-01T09:25:39;99642.50;;;35.10;31.31
63654;BME280;49809;47.418;19.080;2023-08-01T09:29:20;99640.19;;;35.37;29.90
63654;BME280;49809;47.418;19.080;2023-08-01T09:33:09;99625.31;;;34.41;31.84
63654;BME280;49809;47.418;19.080;2023-08-01T09:41:34;99616.19;;;31.48;34.88
63654;BME280;49809;47.418;19.080;2023-08-01T09:45:29;99613.50;;;31.79;34.20
63654;BME280;49809;47.418;19.080;2023-08-01T09:52:45;99593.56;;;31.44;34.24
63654;BME280;49809;47.418;19.080;2023-08-01T10:12:28;99583.06;;;33.99;31.39
63654;BME280;49809;47.418;19.080;2023-08-01T10:16:38;99570.09;;;34.52;29.85
63654;BME280;49809;47.418;19.080;2023-08-01T10:38:17;99535.00;;;35.58;27.51
63654;BME280;49809;47.418;19.080;2023-08-01T10:42:12;99520.97;;;35.27;27.35
63654;BME280;49809;47.418;19.080;2023-08-01T10:45:48;99523.16;;;35.87;25.91
63654;BME280;49809;47.418;19.080;2023-08-01T10:49:43;99525.28;;;35.41;25.76
63654;BME280;49809;47.418;19.080;2023-08-01T10:53:24;99517.72;;;35.83;24.71
63654;BME280;49809;47.418;19.080;2023-08-01T10:57:18;99516.44;;;35.21;26.38
63654;BME280;49809;47.418;19.080;2023-08-01T11:00:58;99507.66;;;35.26;26.30
63654;BME280;49809;47.418;19.080;2023-08-01T11:04:34;99495.97;;;33.99;26.67
63654;BME280;49809;47.418;19.080;2023-08-01T11:08:16;99501.78;;;34.82;25.63
63654;BME280;49809;47.418;19.080;2023-08-01T11:11:49;99488.53;;;35.06;25.62
63654;BME280;49809;47.418;19.080;2023-08-01T11:15:12;99486.12;;;34.51;25.62
63654;BME280;49809;47.418;19.080;2023-08-01T11:22:34;99475.31;;;33.95;27.20
63654;BME280;49809;47.418;19.080;2023-08-01T11:26:23;99467.41;;;33.81;27.67
63654;BME280;49809;47.418;19.080;2023-08-01T11:29:44;99463.09;;;33.28;28.03
63654;BME280;49809;47.418;19.080;2023-08-01T11:33:24;99464.34;;;33.79;27.32
63654;BME280;49809;47.418;19.080;2023-08-01T11:37:11;99459.28;;;33.93;27.37
63654;BME280;49809;47.418;19.080;2023-08-01T11:44:36;99444.16;;;33.69;28.33
63654;BME280;49809;47.418;19.080;2023-08-01T11:48:15;99440.75;;;33.45;27.59
63654;BME280;49809;47.418;19.080;2023-08-01T11:51:30;99430.28;;;33.92;27.93
63654;BME280;49809;47.418;19.080;2023-08-01T11:55:06;99419.16;;;33.47;28.68
63654;BME280;49809;47.418;19.080;2023-08-01T11:58:35;99423.69;;;32.59;28.59
63654;BME280;49809;47.418;19.080;2023-08-01T12:02:26;99413.75;;;32.88;28.63
63654;BME280;49809;47.418;19.080;2023-08-01T12:18:22;99380.84;;;32.88;29.03
63654;BME280;49809;47.418;19.080;2023-08-01T12:26:22;99362.97;;;31.47;31.31
63654;BME280;49809;47.418;19.080;2023-08-01T12:30:00;99351.63;;;32.42;30.03
63654;BME280;49809;47.418;19.080;2023-08-01T12:33:42;99358.59;;;32.86;29.13
63654;BME280;49809;47.418;19.080;2023-08-01T12:37:29;99364.00;;;32.70;29.29
63654;BME280;49809;47.418;19.080;2023-08-01T12:45:47;99348.22;;;32.34;30.17
63654;BME280;49809;47.418;19.080;2023-08-01T12:49:17;99334.38;;;33.01;29.38
63654;BME280;49809;47.418;19.080;2023-08-01T12:53:20;99338.72;;;32.98;28.62
63654;BME280;49809;47.418;19.080;2023-08-01T12:57:29;99340.78;;;32.55;29.46
63654;BME280;49809;47.418;19.080;2023-08-01T13:01:19;99322.22;;;32.66;29.52
63654;BME280;49809;47.418;19.080;2023-08-01T13:05:00;99322.47;;;33.07;29.62
63654;BME280;49809;47.418;19.080;2023-08-01T13:08:40;99305.28;;;32.71;29.74
63654;BME280;49809;47.418;19.080;2023-08-01T13:20:02;99304.94;;;32.06;29.65
63654;BME280;49809;47.418;19.080;2023-08-01T13:24:06;99301.41;;;31.86;30.82
63654;BME280;49809;47.418;19.080;2023-08-01T13:27:56;99292.56;;;31.78;30.52
63654;BME280;49809;47.418;19.080;2023-08-01T13:32:07;99303.69;;;31.68;31.17
63654;BME280;49809;47.418;19.080;2023-08-01T13:43:36;99277.00;;;31.48;31.36
63654;BME280;49809;47.418;19.080;2023-08-01T13:47:02;99268.81;;;31.25;31.02
63654;BME280;49809;47.418;19.080;2023-08-01T13:54:41;99280.56;;;31.22;32.14
63654;BME280;49809;47.418;19.080;2023-08-01T13:58:17;99267.50;;;31.80;31.99
63654;BME280;49809;47.418;19.080;2023-08-01T14:01:54;99260.13;;;31.77;32.06
63654;BME280;49809;47.418;19.080;2023-08-01T14:09:55;99268.19;;;30.57;34.51
63654;BME280;49809;47.418;19.080;2023-08-01T14:13:18;99275.22;;;30.85;33.29
63654;BME280;49809;47.418;19.080;2023-08-01T14:16:45;99276.03;;;30.55;34.61
63654;BME280;49809;47.418;19.080;2023-08-01T14:20:23;99266.16;;;30.91;34.36
63654;BME280;49809;47.418;19.080;2023-08-01T14:24:00;99260.28;;;30.66;32.74
63654;BME280;49809;47.418;19.080;2023-08-01T14:27:42;99249.00;;;30.64;32.02
63654;BME280;49809;47.418;19.080;2023-08-01T14:31:36;99237.06;;;30.17;33.00
63654;BME280;49809;47.418;19.080;2023-08-01T14:35:05;99231.16;;;30.56;32.17
63654;BME280;49809;47.418;19.080;2023-08-01T14:38:48;99234.50;;;30.94;31.56
63654;BME280;49809;47.418;19.080;2023-08-01T14:42:40;99228.94;;;31.01;31.66
63654;BME280;49809;47.418;19.080;2023-08-01T14:49:56;99217.50;;;30.83;32.48
63654;BME280;49809;47.418;19.080;2023-08-01T14:53:39;99208.69;;;30.72;33.04
63654;BME280;49809;47.418;19.080;2023-08-01T15:01:20;99200.06;;;30.16;34.48
63654;BME280;49809;47.418;19.080;2023-08-01T15:09:28;99201.50;;;29.94;35.21
63654;BME280;49809;47.418;19.080;2023-08-01T15:18:05;99197.50;;;29.64;35.67
63654;BME280;49809;47.418;19.080;2023-08-01T15:22:16;99185.69;;;29.74;35.50
63654;BME280;49809;47.418;19.080;2023-08-01T15:34:57;99195.53;;;29.24;35.01
63654;BME280;49809;47.418;19.080;2023-08-01T15:38:42;99195.47;;;28.79;35.77
63654;BME280;49809;47.418;19.080;2023-08-01T15:42:08;99193.53;;;28.80;36.96
63654;BME280;49809;47.418;19.080;2023-08-01T15:45:43;99195.13;;;28.70;36.39
63654;BME280;49809;47.418;19.080;2023-08-01T15:49:05;99188.34;;;28.96;36.55
63654;BME280;49809;47.418;19.080;2023-08-01T15:52:32;99187.38;;;28.65;37.07
63654;BME280;49809;47.418;19.080;2023-08-01T15:56:15;99191.31;;;28.57;37.80
63654;BME280;49809;47.418;19.080;2023-08-01T15:59:38;99203.38;;;28.52;40.31
63654;BME280;49809;47.418;19.080;2023-08-01T16:02:58;99205.88;;;28.26;43.66
63654;BME280;49809;47.418;19.080;2023-08-01T16:06:28;99221.94;;;26.93;47.49
63654;BME280;49809;47.418;19.080;2023-08-01T16:09:43;99238.81;;;26.29;49.57
63654;BME280;49809;47.418;19.080;2023-08-01T16:13:01;99236.09;;;25.61;52.06
63654;BME280;49809;47.418;19.080;2023-08-01T16:16:21;99250.97;;;25.37;52.48
63654;BME280;49809;47.418;19.080;2023-08-01T16:19:39;99276.22;;;25.04;53.53
63654;BME280;49809;47.418;19.080;2023-08-01T16:22:59;99288.12;;;24.33;56.26
63654;BME280;49809;47.418;19.080;2023-08-01T16:26:27;99306.97;;;23.99;57.71
63654;BME280;49809;47.418;19.080;2023-08-01T16:29:43;99325.63;;;23.81;58.77
63654;BME280;49809;47.418;19.080;2023-08-01T16:33:09;99345.50;;;23.47;59.71
63654;BME280;49809;47.418;19.080;2023-08-01T16:36:48;99364.12;;;23.33;60.65
63654;BME280;49809;47.418;19.080;2023-08-01T16:40:23;99374.09;;;23.10;60.17
63654;BME280;49809;47.418;19.080;2023-08-01T16:43:42;99378.38;;;22.91;60.85
63654;BME280;49809;47.418;19.080;2023-08-01T16:47:09;99389.41;;;22.67;61.56
63654;BME280;49809;47.418;19.080;2023-08-01T16:50:44;99381.59;;;22.62;61.90
63654;BME280;49809;47.418;19.080;2023-08-01T16:54:00;99392.47;;;22.31;62.34
63654;BME280;49809;47.418;19.080;2023-08-01T16:57:28;99378.03;;;22.07;63.42
63654;BME280;49809;47.418;19.080;2023-08-01T17:01:05;99387.25;;;21.91;64.31
63654;BME280;49809;47.418;19.080;2023-08-01T17:04:48;99386.38;;;21.87;67.33
63654;BME280;49809;47.418;19.080;2023-08-01T17:08:11;99383.06;;;21.62;67.38
63654;BME280;49809;47.418;19.080;2023-08-01T17:11:47;99392.38;;;21.49;67.47
63654;BME280;49809;47.418;19.080;2023-08-01T17:15:16;99387.91;;;21.41;67.34
63654;BME280;49809;47.418;19.080;2023-08-01T17:18:44;99392.16;;;21.42;67.90
63654;BME280;49809;47.418;19.080;2023-08-01T17:22:11;99391.84;;;21.15;69.37
63654;BME280;49809;47.418;19.080;2023-08-01T17:25:49;99390.13;;;21.23;69.53
63654;BME280;49809;47.418;19.080;2023-08-01T17:29:33;99381.59;;;20.93;75.69
63654;BME280;49809;47.418;19.080;2023-08-01T17:33:09;99384.63;;;20.52;79.66
63654;BME280;49809;47.418;19.080;2023-08-01T17:36:56;99388.63;;;20.09;86.33
63654;BME280;49809;47.418;19.080;2023-08-01T17:40:44;99386.34;;;19.63;89.95
63654;BME280;49809;47.418;19.080;2023-08-01T17:44:22;99376.78;;;19.08;91.50
63654;BME280;49809;47.418;19.080;2023-08-01T17:47:58;99399.06;;;18.88;100.00
63654;BME280;49809;47.418;19.080;2023-08-01T17:51:41;99395.00;;;18.52;100.00
63654;BME280;49809;47.418;19.080;2023-08-01T17:55:10;99378.69;;;18.37;100.00
63654;BME280;49809;47.418;19.080;2023-08-01T17:58:40;99383.28;;;18.36;100.00
63654;BME280;49809;47.418;19.080;2023-08-01T18:02:06;99378.38;;;18.09;100.00
63654;BME280;49809;47.418;19.080;2023-08-01T18:05:26;99374.31;;;18.03;100.00
63654;BME280;49809;47.418;19.080;2023-08-01T18:08:56;99376.91;;;17.91;100.00
63654;BME280;49809;47.418;19.080;2023-08-01T18:12:15;99394.16;;;17.64;100.00
63654;BME280;49809;47.418;19.080;2023-08-01T18:15:54;99401.53;;;17.58;100.00
63654;BME280;49809;47.418;19.080;2023-08-01T18:19:33;99416.81;;;17.49;100.00
63654;BME280;49809;47.418;19.080;2023-08-01T18:22:55;99431.00;;;17.41;100.00
63654;BME280;49809;47.418;19.080;2023-08-01T18:26:41;99441.53;;;17.29;100.00
63654;BME280;49809;47.418;19.080;2023-08-01T18:30:34;99428.97;;;17.21;100.00
63654;BME280;49809;47.418;19.080;2023-08-01T18:34:11;99445.03;;;17.21;100.00
63654;BME280;49809;47.418;19.080;2023-08-01T18:37:44;99463.25;;;17.02;100.00
63654;BME280;49809;47.418;19.080;2023-08-01T18:41:17;99472.88;;;17.03;100.00
63654;BME280;49809;47.418;19.080;2023-08-01T18:44:46;99488.41;;;17.01;100.00
63654;BME280;49809;47.418;19.080;2023-08-01T18:48:19;99498.00;;;16.93;100.00
63654;BME280;49809;47.418;19.080;2023-08-01T18:51:51;99493.91;;;16.95;100.00
63654;BME280;49809;47.418;19.080;2023-08-01T18:55:29;99510.28;;;16.94;100.00
63654;BME280;49809;47.418;19.080;2023-08-01T18:59:06;99527.56;;;16.97;100.00
63654;BME280;49809;47.418;19.080;2023-08-01T19:03:07;99520.50;;;16.92;100.00
63654;BME280;49809;47.418;19.080;2023-08-01T19:06:29;99524.88;;;16.88;100.00
63654;BME280;49809;47.418;19.080;2023-08-01T19:10:05;99524.69;;;16.76;100.00
63654;BME280;49809;47.418;19.080;2023-08-01T19:13:38;99518.69;;;16.70;100.00
63654;BME280;49809;47.418;19.080;2023-08-01T19:17:06;99502.34;;;16.63;100.00
63654;BME280;49809;47.418;19.080;2023-08-01T19:20:26;99519.47;;;16.62;100.00
63654;BME280;49809;47.418;19.080;2023-08-01T19:24:00;99525.44;;;16.59;100.00
63654;BME280;49809;47.418;19.080;2023-08-01T19:27:18;99512.53;;;16.61;100.00
63654;BME280;49809;47.418;19.080;2023-08-01T19:30:51;99500.16;;;16.65;100.00
63654;BME280;49809;47.418;19.080;2023-08-01T19:34:16;99501.06;;;16.61;100.00
63654;BME280;49809;47.418;19.080;2023-08-01T19:37:50;99493.84;;;16.61;100.00
63654;BME280;49809;47.418;19.080;2023-08-01T19:41:08;99483.50;;;16.68;100.00
63654;BME280;49809;47.418;19.080;2023-08-01T19:44:37;99489.31;;;16.70;100.00
63654;BME280;49809;47.418;19.080;2023-08-01T19:48:18;99494.47;;;16.67;100.00
63654;BME280;49809;47.418;19.080;2023-08-01T19:51:54;99486.97;;;16.69;100.00
63654;BME280;49809;47.418;19.080;2023-08-01T19:55:30;99495.47;;;16.79;100.00
63654;BME280;49809;47.418;19.080;2023-08-01T19:58:48;99503.97;;;16.81;100.00
63654;BME280;49809;47.418;19.080;2023-08-01T20:02:23;99490.16;;;16.88;100.00
63654;BME280;49809;47.418;19.080;2023-08-01T20:06:03;99481.97;;;16.93;100.00
63654;BME280;49809;47.418;19.080;2023-08-01T20:09:26;99491.72;;;16.98;100.00
63654;BME280;49809;47.418;19.080;2023-08-01T20:13:07;99499.44;;;16.99;100.00
63654;BME280;49809;47.418;19.080;2023-08-01T20:16:34;99488.75;;;17.08;100.00
63654;BME280;49809;47.418;19.080;2023-08-01T20:20:11;99494.84;;;17.00;100.00
63654;BME280;49809;47.418;19.080;2023-08-01T20:23:39;99479.31;;;17.02;100.00
63654;BME280;49809;47.418;19.080;2023-08-01T20:27:09;99456.34;;;17.01;100.00
63654;BME280;49809;47.418;19.080;2023-08-01T20:30:37;99460.25;;;16.94;100.00
63654;BME280;49809;47.418;19.080;2023-08-01T20:34:17;99443.91;;;16.96;100.00
63654;BME280;49809;47.418;19.080;2023-08-01T20:37:33;99443.13;;;16.87;100.00
63654;BME280;49809;47.418;19.080;2023-08-01T20:41:15;99428.19;;;16.94;100.00
63654;BME280;49809;47.418;19.080;2023-08-01T20:44:38;99418.28;;;16.86;100.00
63654;BME280;49809;47.418;19.080;2023-08-01T20:47:57;99417.97;;;16.88;100.00
63654;BME280;49809;47.418;19.080;2023-08-01T20:51:18;99401.78;;;16.93;100.00
63654;BME280;49809;47.418;19.080;2023-08-01T20:54:36;99385.56;;;16.89;100.00
63654;BME280;49809;47.418;19.080;2023-08-01T20:58:20;99401.13;;;16.96;100.00
63654;BME280;49809;47.418;19.080;2023-08-01T21:01:59;99415.00;;;16.98;100.00
63654;BME280;49809;47.418;19.080;2023-08-01T21:05:35;99429.00;;;17.04;100.00
63654;BME280;49809;47.418;19.080;2023-08-01T21:08:56;99477.09;;;16.86;100.00
63654;BME280;49809;47.418;19.080;2023-08-01T21:12:35;99450.03;;;16.88;100.00
63654;BME280;49809;47.418;19.080;2023-08-01T21:16:18;99445.94;;;16.73;100.00
63654;BME280;49809;47.418;19.080;2023-08-01T21:20:09;99456.78;;;16.77;100.00
63654;BME280;49809;47.418;19.080;2023-08-01T21:23:47;99475.13;;;16.61;100.00
63654;BME280;49809;47.418;19.080;2023-08-01T21:27:09;99485.13;;;16.47;100.00
63654;BME280;49809;47.418;19.080;2023-08-01T21:30:41;99503.22;;;16.50;100.00
63654;BME280;49809;47.418;19.080;2023-08-01T21:34:15;99510.69;;;16.70;100.00
63654;BME280;49809;47.418;19.080;2023-08-01T21:37:47;99503.44;;;16.62;100.00
63654;BME280;49809;47.418;19.080;2023-08-01T21:41:16;99519.88;;;16.56;100.00
63654;BME280;49809;47.418;19.080;2023-08-01T21:44:59;99533.91;;;16.61;100.00
63654;BME280;49809;47.418;19.080;2023-08-01T21:48:18;99536.69;;;16.56;100.00
63654;BME280;49809;47.418;19.080;2023-08-01T21:51:47;99548.00;;;16.53;100.00
63654;BME280;49809;47.418;19.080;2023-08-01T21:55:07;99578.47;;;16.52;100.00
63654;BME280;49809;47.418;19.080;2023-08-01T21:58:30;99610.38;;;16.48;100.00
63654;BME280;49809;47.418;19.080;2023-08-01T22:01:54;99630.97;;;16.48;100.00
63654;BME280;49809;47.418;19.080;2023-08-01T22:05:24;99619.06;;;16.54;100.00
63654;BME280;49809;47.418;19.080;2023-08-01T22:08:57;99607.19;;;16.60;100.00
63654;BME280;49809;47.418;19.080;2023-08-01T22:12:27;99613.78;;;16.63;100.00
63654;BME280;49809;47.418;19.080;2023-08-01T22:20:24;99587.06;;;16.63;100.00
63654;BME280;49809;47.418;19.080;2023-08-01T22:23:55;99546.19;;;16.62;100.00
63654;BME280;49809;47.418;19.080;2023-08-01T22:27:12;99558.44;;;16.63;100.00
63654;BME280;49809;47.418;19.080;2023-08-01T22:30:30;99561.44;;;16.62;100.00
63654;BME280;49809;47.418;19.080;2023-08-01T22:33:54;99542.91;;;16.65;100.00
63654;BME280;49809;47.418;19.080;2023-08-01T22:37:30;99532.38;;;16.60;100.00
63654;BME280;49809;47.418;19.080;2023-08-01T22:40:58;99534.53;;;16.58;100.00
63654;BME280;49809;47.418;19.080;2023-08-01T22:44:40;99512.06;;;16.59;100.00
63654;BME280;49809;47.418;19.080;2023-08-01T22:48:01;99518.00;;;16.56;100.00
63654;BME280;49809;47.418;19.080;2023-08-01T22:51:45;99521.69;;;16.60;100.00
63654;BME280;49809;47.418;19.080;2023-08-01T22:55:22;99522.53;;;16.56;100.00
63654;BME280;49809;47.418;19.080;2023-08-01T22:58:57;99528.75;;;16.65;100.00
63654;BME280;49809;47.418;19.080;2023-08-01T23:02:26;99537.41;;;16.70;100.00
63654;BME280;49809;47.418;19.080;2023-08-01T23:06:00;99543.53;;;16.71;100.00